Time;durP1;ratioP1;P1;durP2;ratioP2;P2;SDS_P1;SDS_P2;PMS_P1;PMS_P2;Temp;Humidity;BMP_temperature;BMP_pressure;BME280_temperature;BME280_humidity;BME280_pressure;Samples;Min_cycle;Max_cycle;Signal;HPM_P1;HPM_P2
2022/03/01 00:00:44;;;;;;;14.38;13.03;;;;;;;4.98;64.31;101760.09;440871;119;922595;-70
2022/03/01 00:01:48;;;;;;;13.12;11.95;;;;;;;4.97;64.31;101761.08;442160;119;923730;-70
2022/03/01 00:02:51;;;;;;;11.72;10.65;;;;;;;4.99;64.40;101761.80;438374;118;922651;-70
2022/03/01 00:03:55;;;;;;;11.27;10.24;;;;;;;4.99;64.43;101759.09;440003;120;922813;-71
2022/03/01 00:04:58;;;;;;;12.64;11.53;;;;;;;5.00;64.41;101760.80;448187;118;922612;-70
2022/03/01 00:06:03;;;;;;;11.61;10.62;;;;;;;4.99;64.39;101762.64;447835;116;922663;-68
2022/03/01 00:07:07;;;;;;;12.66;11.42;;;;;;;4.98;64.46;101760.09;444428;118;924210;-70
2022/03/01 00:08:10;;;;;;;12.01;10.96;;;;;;;4.99;64.52;101761.80;441912;118;922634;-70
2022/03/01 00:09:13;;;;;;;12.10;11.10;;;;;;;4.99;64.54;101759.95;434834;119;923163;-68
2022/03/01 00:10:17;;;;;;;12.04;11.00;;;;;;;4.98;64.54;101754.68;439645;120;923586;-69
2022/03/01 00:11:21;;;;;;;11.33;10.31;;;;;;;4.98;64.54;101760.09;447925;118;923015;-70
2022/03/01 00:12:24;;;;;;;10.79;9.89;;;;;;;4.97;64.59;101759.23;448140;118;922743;-69
2022/03/01 00:13:27;;;;;;;10.46;9.48;;;;;;;4.97;64.62;101761.08;447668;118;930178;-70
2022/03/01 00:14:30;;;;;;;10.89;9.98;;;;;;;4.98;64.70;101760.94;448063;118;922706;-69
2022/03/01 00:15:33;;;;;;;10.39;9.48;;;;;;;4.98;64.71;101763.64;442571;120;923045;-68
2022/03/01 00:16:37;;;;;;;12.33;11.22;;;;;;;5.00;64.74;101766.20;440530;120;922521;-71
2022/03/01 00:17:41;;;;;;;11.31;10.32;;;;;;;5.00;64.73;101753.55;448014;117;922648;-71
2022/03/01 00:18:44;;;;;;;10.98;10.05;;;;;;;4.98;64.62;101750.12;448036;118;923111;-69
2022/03/01 00:19:47;;;;;;;10.88;9.89;;;;;;;4.94;64.60;101755.99;448191;118;922934;-69
2022/03/01 00:20:50;;;;;;;11.08;10.17;;;;;;;4.90;64.60;101750.05;446614;117;930661;-70
2022/03/01 00:21:54;;;;;;;10.06;9.26;;;;;;;4.87;64.71;101760.28;446930;117;922742;-71
2022/03/01 00:22:57;;;;;;;9.86;9.03;;;;;;;4.85;64.80;101759.59;442541;120;922545;-70
2022/03/01 00:24:00;;;;;;;8.97;8.18;;;;;;;4.83;64.86;101761.59;441894;120;930600;-69
2022/03/01 00:25:04;;;;;;;8.71;8.01;;;;;;;4.84;64.85;101766.85;440135;118;922549;-72
2022/03/01 00:26:09;;;;;;;8.93;8.08;;;;;;;4.86;64.82;101772.94;440169;120;922722;-68
2022/03/01 00:27:12;;;;;;;8.92;8.21;;;;;;;4.88;64.84;101775.50;437508;120;922617;-70
2022/03/01 00:28:15;;;;;;;9.56;8.71;;;;;;;4.90;64.80;101776.22;441680;119;922627;-69
2022/03/01 00:29:19;;;;;;;9.23;8.43;;;;;;;4.90;64.80;101768.96;441532;118;922564;-71
2022/03/01 00:30:22;;;;;;;9.58;8.69;;;;;;;4.92;64.75;101768.79;442480;120;923064;-69
2022/03/01 00:31:25;;;;;;;9.22;8.43;;;;;;;4.94;64.70;101774.91;441720;118;922872;-70
2022/03/01 00:32:28;;;;;;;9.79;8.91;;;;;;;4.95;64.67;101774.77;446012;118;922999;-67
2022/03/01 00:33:32;;;;;;;9.37;8.54;;;;;;;4.97;64.61;101777.30;446878;118;923021;-68
2022/03/01 00:34:35;;;;;;;9.53;8.69;;;;;;;4.98;64.55;101774.45;448035;118;922639;-69
2022/03/01 00:35:38;;;;;;;9.11;8.34;;;;;;;4.99;64.51;101769.91;443212;118;930898;-71
2022/03/01 00:36:41;;;;;;;10.29;9.38;;;;;;;4.99;64.52;101773.45;446787;118;923103;-69
2022/03/01 00:37:45;;;;;;;10.16;9.19;;;;;;;5.01;64.49;101770.62;448282;118;922615;-71
2022/03/01 00:38:48;;;;;;;10.03;9.19;;;;;;;5.02;64.58;101772.29;443826;118;922672;-69
2022/03/01 00:39:51;;;;;;;9.86;9.06;;;;;;;5.03;64.53;101771.30;440009;118;922953;-70
2022/03/01 00:40:55;;;;;;;8.96;8.27;;;;;;;5.01;64.44;101768.77;448275;118;922610;-69
2022/03/01 00:41:58;;;;;;;10.08;9.23;;;;;;;5.02;64.44;101765.03;447961;118;923009;-69
2022/03/01 00:43:01;;;;;;;10.72;9.68;;;;;;;5.03;64.45;101760.48;447391;117;922496;-70
2022/03/01 00:44:04;;;;;;;9.21;8.41;;;;;;;5.03;64.44;101763.19;448310;116;923040;-71
2022/03/01 00:45:08;;;;;;;9.89;9.03;;;;;;;5.03;64.42;101764.05;448200;118;922930;-69
2022/03/01 00:46:12;;;;;;;9.88;9.06;;;;;;;5.03;64.42;101760.48;447554;117;923197;-70
2022/03/01 00:47:15;;;;;;;10.06;9.04;;;;;;;5.04;64.41;101764.89;448242;116;931048;-69
2022/03/01 00:48:19;;;;;;;10.09;9.28;;;;;;;5.04;64.46;101762.19;448340;117;923085;-70
2022/03/01 00:49:22;;;;;;;9.71;8.88;;;;;;;5.03;64.44;101764.05;447787;117;922701;-71
2022/03/01 00:50:25;;;;;;;9.89;9.11;;;;;;;5.05;64.44;101761.20;447921;116;923051;-70
2022/03/01 00:51:29;;;;;;;9.54;8.78;;;;;;;5.05;64.47;101763.90;448305;118;922994;-68
2022/03/01 00:52:32;;;;;;;9.73;8.80;;;;;;;5.07;64.39;101769.16;447973;118;923051;-69
2022/03/01 00:53:35;;;;;;;9.84;8.94;;;;;;;5.05;64.34;101763.90;447551;118;922511;-70
2022/03/01 00:54:39;;;;;;;10.37;9.47;;;;;;;5.06;64.38;101767.45;447564;117;922580;-71
2022/03/01 00:55:43;;;;;;;9.60;8.70;;;;;;;5.05;64.36;101761.20;442324;120;930624;-71
2022/03/01 00:56:47;;;;;;;9.83;8.82;;;;;;;5.05;64.37;101763.90;441762;118;922772;-70
2022/03/01 00:57:50;;;;;;;9.66;8.86;;;;;;;5.07;64.42;101763.76;441199;119;922626;-70
2022/03/01 00:58:53;;;;;;;10.33;9.50;;;;;;;5.07;64.40;101759.20;437809;120;923097;-71
2022/03/01 00:59:56;;;;;;;10.81;9.61;;;;;;;5.07;64.37;101761.91;444630;119;923240;-68
2022/03/01 01:00:59;;;;;;;8.86;8.10;;;;;;;5.08;64.41;101754.63;438199;120;922670;-69
2022/03/01 01:02:02;;;;;;;9.27;8.52;;;;;;;5.10;64.50;101767.00;440681;120;922655;-69
2022/03/01 01:03:06;;;;;;;9.21;8.41;;;;;;;5.12;64.37;101765.01;440606;120;922666;-71
2022/03/01 01:04:09;;;;;;;11.44;9.76;;;;;;;5.13;64.33;101765.86;442002;119;922983;-70
2022/03/01 01:05:12;;;;;;;9.65;8.79;;;;;;;5.14;64.42;101764.84;441221;120;922683;-71
2022/03/01 01:06:16;;;;;;;9.81;9.03;;;;;;;5.15;64.44;101766.55;437706;120;922568;-71
2022/03/01 01:07:19;;;;;;;9.09;8.29;;;;;;;5.15;64.33;101769.25;443324;117;923052;-71
2022/03/01 01:08:22;;;;;;;12.17;10.05;;;;;;;5.14;64.31;101762.13;444211;118;923537;-72
2022/03/01 01:09:25;;;;;;;10.65;9.53;;;;;;;5.13;64.25;101763.16;443688;119;922964;-70
2022/03/01 01:10:28;;;;;;;12.94;10.33;;;;;;;5.12;64.47;101767.72;444519;119;923275;-69
2022/03/01 01:11:31;;;;;;;22.93;13.51;;;;;;;5.11;64.47;101765.15;444652;119;923033;-70
2022/03/01 01:12:34;;;;;;;22.87;14.07;;;;;;;5.10;64.48;101769.70;444903;119;922596;-70
2022/03/01 01:13:37;;;;;;;28.51;15.79;;;;;;;5.08;64.58;101760.03;445156;119;922649;-73
2022/03/01 01:14:41;;;;;;;31.00;16.25;;;;;;;5.05;64.58;101761.20;442173;118;930572;-70
2022/03/01 01:15:44;;;;;;;29.06;14.96;;;;;;;5.03;64.47;101763.19;440981;120;922609;-70
2022/03/01 01:16:47;;;;;;;30.58;15.80;;;;;;;5.03;64.81;101763.19;441337;119;922461;-69
2022/03/01 01:17:50;;;;;;;34.06;16.49;;;;;;;5.03;64.87;101771.30;441976;119;922919;-70
2022/03/01 01:18:55;;;;;;;32.24;16.13;;;;;;;5.04;64.89;101764.89;442417;119;922708;-69
2022/03/01 01:19:58;;;;;;;31.73;15.58;;;;;;;5.04;64.66;101767.59;442138;120;922482;-66
2022/03/01 01:21:01;;;;;;;24.40;14.26;;;;;;;5.04;64.86;101770.30;442248;120;922732;-70
2022/03/01 01:23:26;;;;;;;36.64;17.12;;;;;;;5.01;64.93;101766.06;441980;120;922876;-71
2022/03/01 01:24:29;;;;;;;39.71;16.70;;;;;;;4.99;64.96;101772.61;442367;120;922612;-70
2022/03/01 01:25:32;;;;;;;33.53;16.77;;;;;;;4.98;65.09;101776.30;440383;118;923028;-70
2022/03/01 01:26:35;;;;;;;31.06;15.39;;;;;;;4.97;65.20;101774.59;439805;119;923091;-70
2022/03/01 01:27:40;;;;;;;28.83;15.81;;;;;;;4.96;65.26;101778.33;439113;119;922721;-70
2022/03/01 01:28:43;;;;;;;29.87;15.23;;;;;;;4.96;65.29;101778.33;443983;119;922704;-70
2022/03/01 01:29:46;;;;;;;34.91;16.95;;;;;;;4.96;65.31;101770.22;441693;118;922654;-69
2022/03/01 01:30:51;;;;;;;33.73;16.78;;;;;;;4.97;65.38;101780.00;441714;120;922542;-69
2022/03/01 01:31:54;;;;;;;31.07;15.93;;;;;;;4.98;65.39;101770.90;438690;119;930422;-69
2022/03/01 01:32:58;;;;;;;28.27;15.78;;;;;;;4.99;65.45;101778.86;440764;118;922701;-71
2022/03/01 01:34:01;;;;;;;28.36;15.88;;;;;;;5.00;65.41;101782.42;441392;119;922674;-70
2022/03/01 01:35:06;;;;;;;24.46;15.79;;;;;;;5.00;65.42;101779.72;441479;120;930627;-70
2022/03/01 01:36:11;;;;;;;24.01;14.81;;;;;;;5.00;65.45;101779.72;441739;119;923150;-70
2022/03/01 01:37:14;;;;;;;21.06;15.39;;;;;;;5.00;65.43;101785.13;440574;120;922791;-70
2022/03/01 01:38:17;;;;;;;20.94;13.75;;;;;;;5.00;65.45;101777.02;438981;119;922974;-69
2022/03/01 01:39:20;;;;;;;15.84;12.99;;;;;;;4.98;65.41;101776.30;441136;118;923131;-70
2022/03/01 01:40:32;;;;;;;15.59;12.08;;;;;;;4.97;65.36;101778.16;440015;119;923624;-71
2022/03/01 01:41:35;;;;;;;16.89;12.98;;;;;;;4.96;65.47;101779.14;440249;120;922951;-70
2022/03/01 01:42:39;;;;;;;15.29;13.06;;;;;;;4.96;65.55;101783.73;439117;118;922665;-71
2022/03/01 01:43:42;;;;;;;15.06;13.04;;;;;;;4.95;65.63;101777.47;440972;118;923023;-69
2022/03/01 01:44:45;;;;;;;17.18;13.93;;;;;;;4.97;65.62;101780.85;438324;120;930414;-69
2022/03/01 01:45:50;;;;;;;15.79;13.90;;;;;;;4.99;65.63;101772.61;438145;119;922707;-67
2022/03/01 01:46:53;;;;;;;17.06;14.14;;;;;;;4.97;65.62;101786.26;457902;115;923017;-68
2022/03/01 01:47:58;;;;;;;19.89;15.23;;;;;;;4.98;65.64;101787.11;456538;115;922631;-69
2022/03/01 01:49:01;;;;;;;16.46;13.78;;;;;;;4.98;65.64;101781.70;456056;115;923123;-69
2022/03/01 01:50:06;;;;;;;14.07;12.75;;;;;;;4.99;65.65;101778.02;457027;115;922652;-71
2022/03/01 01:51:09;;;;;;;14.83;12.26;;;;;;;5.00;65.67;101783.28;456619;113;922775;-69
2022/03/01 01:52:12;;;;;;;13.59;12.31;;;;;;;5.01;65.62;101782.28;456322;115;922523;-71
2022/03/01 01:53:16;;;;;;;12.54;11.44;;;;;;;5.03;65.60;101785.67;456707;115;922548;-70
2022/03/01 01:54:19;;;;;;;13.19;12.04;;;;;;;5.04;65.53;101779.27;456135;113;922618;-69
2022/03/01 01:55:24;;;;;;;12.24;11.11;;;;;;;5.03;65.52;101777.55;459387;115;922512;-70
2022/03/01 01:56:29;;;;;;;11.74;10.74;;;;;;;5.04;65.39;101783.81;457905;115;922554;-69
2022/03/01 01:57:32;;;;;;;11.49;9.91;;;;;;;5.02;65.26;101777.70;457532;113;922587;-71
2022/03/01 01:58:36;;;;;;;11.97;10.78;;;;;;;4.99;65.28;101772.61;459383;115;923090;-71
2022/03/01 01:59:39;;;;;;;10.92;9.99;;;;;;;4.97;65.41;101780.00;459565;115;922623;-71
2022/03/01 02:00:42;;;;;;;10.35;9.45;;;;;;;4.96;65.36;101792.66;458694;115;922541;-70
2022/03/01 02:01:45;;;;;;;10.72;9.76;;;;;;;4.94;65.37;101774.91;455322;113;922561;-70
2022/03/01 02:02:50;;;;;;;10.03;9.13;;;;;;;4.93;65.42;101784.01;457597;115;930584;-71
2022/03/01 02:03:54;;;;;;;10.43;9.43;;;;;;;4.93;65.46;101792.12;457223;115;930579;-69
2022/03/01 02:04:57;;;;;;;10.83;9.89;;;;;;;4.90;65.46;101782.47;456996;115;922718;-72
2022/03/01 02:06:01;;;;;;;10.05;9.18;;;;;;;4.90;65.51;101782.47;457087;113;923047;-69
2022/03/01 02:07:05;;;;;;;10.31;9.39;;;;;;;4.91;65.54;101780.59;458171;115;922963;-70
2022/03/01 02:08:08;;;;;;;9.28;8.43;;;;;;;4.92;65.50;101787.70;457425;115;922678;-70
2022/03/01 02:09:11;;;;;;;10.76;9.73;;;;;;;4.92;65.52;101785.00;458573;115;922714;-70
2022/03/01 02:10:15;;;;;;;9.69;8.79;;;;;;;4.92;65.53;101785.86;455206;113;922944;-72
2022/03/01 02:11:18;;;;;;;11.28;8.69;;;;;;;4.94;65.52;101788.42;457908;115;922652;-71
2022/03/01 02:12:21;;;;;;;9.85;8.89;;;;;;;4.94;65.37;101793.83;458133;115;930543;-70
2022/03/01 02:13:25;;;;;;;9.69;8.74;;;;;;;4.93;65.42;101792.12;456756;114;931228;-69
2022/03/01 02:14:27;;;;;;;9.77;8.87;;;;;;;4.91;65.40;101792.26;455835;115;922777;-69
2022/03/01 02:15:31;;;;;;;10.10;9.19;;;;;;;4.93;65.40;101789.41;458087;115;923011;-69
2022/03/01 02:16:35;;;;;;;8.98;8.18;;;;;;;4.93;65.34;101795.67;459371;115;923880;-69
2022/03/01 02:17:40;;;;;;;9.13;8.26;;;;;;;4.93;65.28;101798.38;455733;115;922658;-70
2022/03/01 02:18:44;;;;;;;9.64;8.51;;;;;;;4.94;65.28;101796.53;455606;115;922973;-70
2022/03/01 02:19:49;;;;;;;9.51;8.68;;;;;;;4.93;65.28;101794.82;455619;113;922775;-68
2022/03/01 02:20:52;;;;;;;8.84;8.16;;;;;;;4.93;65.25;101795.67;457831;115;922496;-70
2022/03/01 02:21:56;;;;;;;9.20;8.34;;;;;;;4.94;65.30;101799.23;458050;115;922500;-71
2022/03/01 02:23:01;;;;;;;9.87;8.95;;;;;;;4.96;65.28;101799.95;456101;115;922639;-70
2022/03/01 02:24:06;;;;;;;9.15;8.30;;;;;;;4.98;65.27;101797.92;458214;113;922724;-70
2022/03/01 02:25:09;;;;;;;8.96;8.14;;;;;;;4.98;65.30;101796.08;456080;115;922893;-69
2022/03/01 02:26:13;;;;;;;9.81;8.97;;;;;;;5.00;65.26;101793.23;456027;115;923114;-71
2022/03/01 02:27:16;;;;;;;8.99;8.19;;;;;;;5.01;65.16;101794.94;457406;115;923488;-70
2022/03/01 02:28:19;;;;;;;8.78;7.98;;;;;;;5.00;65.13;101785.98;458212;113;923012;-71
2022/03/01 02:29:22;;;;;;;9.49;8.70;;;;;;;5.00;65.08;101785.98;460550;115;922952;-70
2022/03/01 02:30:26;;;;;;;9.24;8.41;;;;;;;5.01;65.00;101787.69;459648;115;922621;-69
2022/03/01 02:31:29;;;;;;;9.03;8.24;;;;;;;4.99;65.05;101791.52;457468;113;923118;-70
2022/03/01 02:32:33;;;;;;;8.76;7.96;;;;;;;4.99;65.07;101789.67;460182;115;922581;-71
2022/03/01 02:33:36;;;;;;;9.18;8.38;;;;;;;4.99;65.01;101784.27;460292;115;922771;-68
2022/03/01 02:34:39;;;;;;;8.55;7.79;;;;;;;4.98;64.99;101782.56;456732;113;922831;-71
2022/03/01 02:35:42;;;;;;;8.66;7.99;;;;;;;4.98;65.02;101789.81;457796;115;922667;-69
2022/03/01 02:36:46;;;;;;;8.76;7.72;;;;;;;4.97;64.95;101791.66;460431;115;922518;-71
2022/03/01 02:37:49;;;;;;;11.05;8.39;;;;;;;4.96;64.95;101795.36;458998;115;922704;-70
2022/03/01 02:38:52;;;;;;;9.39;8.57;;;;;;;4.94;64.96;101786.58;456940;113;922690;-68
2022/03/01 02:39:55;;;;;;;9.09;8.22;;;;;;;4.94;65.08;101786.58;456271;115;922828;-70
2022/03/01 02:40:58;;;;;;;9.03;8.21;;;;;;;4.94;65.14;101786.58;456283;115;922655;-70
2022/03/01 02:42:02;;;;;;;9.70;8.81;;;;;;;4.95;65.12;101785.58;457748;115;922676;-71
2022/03/01 02:43:07;;;;;;;9.42;8.22;;;;;;;4.95;65.08;101784.72;456792;113;922639;-69
2022/03/01 02:44:12;;;;;;;8.06;7.36;;;;;;;4.95;65.12;101795.53;457844;115;922598;-70
2022/03/01 02:45:18;;;;;;;8.87;8.10;;;;;;;4.96;65.10;101783.73;459143;115;922544;-70
2022/03/01 02:46:21;;;;;;;8.09;7.42;;;;;;;4.96;65.14;101794.54;456252;113;923299;-69
2022/03/01 02:47:24;;;;;;;9.17;8.28;;;;;;;4.98;65.16;101790.67;460557;115;922543;-68
2022/03/01 02:48:27;;;;;;;8.48;7.72;;;;;;;4.98;65.13;101787.97;460273;115;922642;-68
2022/03/01 02:49:31;;;;;;;9.13;8.33;;;;;;;4.99;65.19;101784.27;457789;114;922465;-70
2022/03/01 02:50:34;;;;;;;8.67;7.86;;;;;;;4.99;65.06;101778.02;456238;115;922504;-70
2022/03/01 02:51:38;;;;;;;7.78;7.08;;;;;;;5.00;65.08;101785.13;456206;115;922524;-71
2022/03/01 02:52:41;;;;;;;8.51;7.81;;;;;;;4.99;65.05;101791.52;456176;115;922618;-72
2022/03/01 02:53:44;;;;;;;8.04;7.35;;;;;;;5.00;65.07;101785.13;457259;113;922597;-70
2022/03/01 02:54:47;;;;;;;8.26;7.48;;;;;;;4.99;65.07;101788.83;456284;115;922499;-71
2022/03/01 02:55:50;;;;;;;9.44;8.48;;;;;;;4.99;64.97;101791.52;455761;115;922553;-70
2022/03/01 02:56:59;;;;;;;8.68;7.97;;;;;;;4.97;65.01;101788.11;456774;113;922550;-70
2022/03/01 02:57:59;;;;;;;8.79;7.99;;;;;;;4.95;65.02;101788.28;456303;115;930576;-71
2022/03/01 02:59:02;;;;;;;7.16;6.55;;;;;;;4.95;65.06;101792.83;456282;115;922886;-71
2022/03/01 03:00:06;;;;;;;8.54;7.75;;;;;;;4.94;65.07;101789.27;458276;115;922499;-68
2022/03/01 03:01:10;;;;;;;8.44;7.66;;;;;;;4.95;65.06;101790.98;456853;115;922663;-70
2022/03/01 03:02:15;;;;;;;8.41;7.71;;;;;;;4.95;65.09;101785.58;460352;115;930549;-69
2022/03/01 03:03:18;;;;;;;7.81;7.09;;;;;;;4.95;65.00;101790.13;458957;115;923031;-68
2022/03/01 03:04:22;;;;;;;7.44;6.74;;;;;;;4.93;65.05;101790.27;456205;113;922707;-70
2022/03/01 03:05:25;;;;;;;8.41;7.64;;;;;;;4.92;65.08;101793.97;458777;115;930599;-71
2022/03/01 03:06:28;;;;;;;7.86;7.21;;;;;;;4.91;65.03;101792.26;460494;115;922870;-70
2022/03/01 03:07:31;;;;;;;8.40;7.64;;;;;;;4.91;65.03;101796.81;457745;113;922558;-70
2022/03/01 03:08:34;;;;;;;8.02;7.22;;;;;;;4.92;65.07;101798.52;457979;115;922545;-71
2022/03/01 03:09:37;;;;;;;7.81;7.08;;;;;;;4.91;65.13;101797.66;460546;115;922636;-70
2022/03/01 03:10:41;;;;;;;8.46;7.68;;;;;;;4.91;65.17;101799.52;458285;115;922917;-70
2022/03/01 03:11:44;;;;;;;8.57;7.80;;;;;;;4.91;65.17;101794.95;458653;113;930518;-69
2022/03/01 03:12:48;;;;;;;8.68;7.91;;;;;;;4.92;65.19;101793.11;460427;115;922595;-69
2022/03/01 03:13:51;;;;;;;8.43;7.64;;;;;;;4.91;65.19;101794.95;460041;115;922846;-70
2022/03/01 03:14:54;;;;;;;9.03;8.23;;;;;;;4.91;65.24;101797.66;457434;113;922677;-71
2022/03/01 03:15:57;;;;;;;8.91;8.21;;;;;;;4.92;65.22;101796.67;457731;115;922588;-70
2022/03/01 03:17:00;;;;;;;8.56;7.75;;;;;;;4.93;65.28;101797.52;456174;115;922573;-70
2022/03/01 03:18:04;;;;;;;8.22;7.56;;;;;;;4.94;65.30;101799.23;457476;113;923253;-71
2022/03/01 03:19:07;;;;;;;8.67;8.04;;;;;;;4.94;65.29;101799.23;458144;115;923008;-71
2022/03/01 03:20:11;;;;;;;9.44;8.39;;;;;;;4.95;65.27;101795.53;459895;115;930546;-71
2022/03/01 03:21:14;;;;;;;9.40;8.55;;;;;;;4.95;65.26;101796.39;456870;115;923028;-71
2022/03/01 03:22:18;;;;;;;9.35;8.46;;;;;;;4.97;65.27;101796.22;457871;113;922893;-69
2022/03/01 03:23:22;;;;;;;10.61;9.70;;;;;;;4.98;65.32;101790.67;456401;115;930639;-70
2022/03/01 03:24:25;;;;;;;9.05;8.19;;;;;;;4.98;65.30;101793.37;457355;115;922583;-69
2022/03/01 03:25:28;;;;;;;9.19;8.39;;;;;;;4.99;65.09;101791.52;457204;115;923219;-69
2022/03/01 03:26:31;;;;;;;8.63;7.88;;;;;;;4.97;65.11;101780.85;457832;113;922677;-69
2022/03/01 03:27:34;;;;;;;8.89;8.13;;;;;;;4.97;65.13;101777.30;456149;115;922654;-68
2022/03/01 03:28:37;;;;;;;9.28;8.09;;;;;;;4.94;65.11;101789.27;457109;115;923097;-70
2022/03/01 03:29:40;;;;;;;8.86;8.02;;;;;;;4.93;65.18;101790.27;458055;114;922688;-70
2022/03/01 03:30:43;;;;;;;8.74;7.96;;;;;;;4.91;65.14;101783.30;456455;115;922606;-68
2022/03/01 03:31:46;;;;;;;9.48;8.64;;;;;;;4.88;65.18;101783.61;456608;115;922564;-70
2022/03/01 03:32:50;;;;;;;8.58;7.88;;;;;;;4.86;65.28;101783.75;459538;113;922614;-68
2022/03/01 03:33:53;;;;;;;9.42;8.61;;;;;;;4.85;65.39;101782.04;455803;115;922660;-72
2022/03/01 03:34:56;;;;;;;9.74;8.82;;;;;;;4.87;65.47;101781.90;456251;115;922637;-72
2022/03/01 03:35:59;;;;;;;10.94;9.74;;;;;;;4.87;65.46;101785.45;457368;113;922680;-70
2022/03/01 03:37:03;;;;;;;11.48;10.32;;;;;;;4.85;65.29;101778.52;457968;115;922736;-69
2022/03/01 03:38:06;;;;;;;13.86;11.94;;;;;;;4.81;65.25;101772.53;460341;115;930288;-70
2022/03/01 03:39:11;;;;;;;11.51;10.31;;;;;;;4.77;65.33;101771.14;458855;115;922621;-69
2022/03/01 03:40:15;;;;;;;14.11;11.80;;;;;;;4.77;65.50;101771.14;456809;115;922620;-71
2022/03/01 03:41:19;;;;;;;16.61;11.65;;;;;;;4.78;65.61;101769.29;459654;115;922523;-70
2022/03/01 03:42:23;;;;;;;13.41;11.78;;;;;;;4.77;65.62;101757.62;456178;115;922561;-72
2022/03/01 03:43:27;;;;;;;18.46;12.66;;;;;;;4.79;65.67;101771.00;457546;113;930425;-69
2022/03/01 03:44:31;;;;;;;19.17;12.70;;;;;;;4.80;65.67;101767.27;459082;115;922482;-71
2022/03/01 03:45:34;;;;;;;18.56;13.09;;;;;;;4.80;65.66;101770.83;460508;115;922502;-71
2022/03/01 03:46:37;;;;;;;13.58;11.56;;;;;;;4.80;65.63;101762.72;457843;113;922692;-70
2022/03/01 03:47:41;;;;;;;18.94;13.71;;;;;;;4.80;65.56;101769.97;457201;115;923461;-70
2022/03/01 03:48:44;;;;;;;16.10;13.11;;;;;;;4.80;65.61;101764.57;456164;115;922530;-70
2022/03/01 03:49:47;;;;;;;15.15;12.82;;;;;;;4.79;65.69;101762.89;456958;115;922603;-70
2022/03/01 03:50:51;;;;;;;14.08;12.24;;;;;;;4.80;65.79;101767.27;458277;115;922617;-71
2022/03/01 03:51:55;;;;;;;14.48;12.98;;;;;;;4.80;65.72;101764.57;456385;115;922741;-70
2022/03/01 03:52:58;;;;;;;13.66;11.84;;;;;;;4.79;65.67;101761.05;458275;115;922538;-70
2022/03/01 03:54:01;;;;;;;14.12;12.04;;;;;;;4.80;65.65;101761.86;457885;114;922547;-70
2022/03/01 03:55:06;;;;;;;14.49;12.99;;;;;;;4.78;65.61;101766.59;456339;113;922979;-70
2022/03/01 03:56:10;;;;;;;13.51;12.10;;;;;;;4.77;65.68;101762.18;456144;115;922506;-72
2022/03/01 03:57:13;;;;;;;13.08;11.74;;;;;;;4.78;65.73;101761.19;458048;115;923120;-69
2022/03/01 03:58:16;;;;;;;14.09;12.74;;;;;;;4.78;65.80;101763.89;458546;114;922725;-70
2022/03/01 03:59:19;;;;;;;14.74;13.40;;;;;;;4.78;65.73;101774.69;459018;115;922569;-70
2022/03/01 04:00:23;;;;;;;15.47;14.01;;;;;;;4.77;65.71;101763.03;457371;115;922551;-71
2022/03/01 04:01:28;;;;;;;14.31;13.01;;;;;;;4.76;65.71;101755.06;456176;115;930378;-71
2022/03/01 04:02:33;;;;;;;13.62;12.38;;;;;;;4.74;65.73;101757.91;455679;113;923026;-69
2022/03/01 04:03:37;;;;;;;15.46;14.00;;;;;;;4.72;65.70;101759.07;460204;115;922546;-69
2022/03/01 04:04:40;;;;;;;15.11;13.60;;;;;;;4.71;65.53;101758.22;459461;115;930455;-71
2022/03/01 04:05:43;;;;;;;14.83;13.53;;;;;;;4.71;65.78;101758.22;455072;113;930383;-69
2022/03/01 04:06:47;;;;;;;13.79;12.56;;;;;;;4.70;65.77;101761.91;457866;115;922818;-69
2022/03/01 04:07:50;;;;;;;14.36;13.16;;;;;;;4.68;65.75;101753.13;460406;115;930454;-70
2022/03/01 04:08:53;;;;;;;15.13;13.49;;;;;;;4.67;65.78;101750.56;457603;113;922622;-68
2022/03/01 04:09:56;;;;;;;13.84;12.64;;;;;;;4.65;65.80;101760.66;456664;115;922559;-70
2022/03/01 04:11:00;;;;;;;13.48;12.25;;;;;;;4.63;65.85;101760.83;456369;115;922431;-70
2022/03/01 04:12:03;;;;;;;13.23;12.07;;;;;;;4.59;65.79;101765.65;460169;115;922891;-72
2022/03/01 04:13:06;;;;;;;14.14;12.91;;;;;;;4.57;65.81;101761.41;457041;113;922477;-70
2022/03/01 04:14:09;;;;;;;14.23;13.06;;;;;;;4.55;65.97;101755.30;460299;115;922525;-70
2022/03/01 04:15:13;;;;;;;12.09;11.14;;;;;;;4.55;66.05;101760.70;456916;115;922582;-71
2022/03/01 04:16:17;;;;;;;12.14;10.99;;;;;;;4.53;65.99;101763.53;456427;113;922857;-70
2022/03/01 04:17:21;;;;;;;12.26;11.28;;;;;;;4.53;66.05;101759.98;457382;115;922741;-70
2022/03/01 04:18:25;;;;;;;12.92;11.81;;;;;;;4.54;66.05;101764.39;458368;115;922582;-70
2022/03/01 04:19:28;;;;;;;10.76;9.81;;;;;;;4.55;66.12;101768.80;458874;115;922686;-70
2022/03/01 04:20:31;;;;;;;11.53;10.53;;;;;;;4.55;66.13;101764.25;457374;113;922706;-68
2022/03/01 04:21:36;;;;;;;11.96;10.81;;;;;;;4.58;66.11;101771.19;457039;115;923001;-70
2022/03/01 04:22:39;;;;;;;11.11;10.16;;;;;;;4.58;66.12;101772.05;459887;115;922543;-69
2022/03/01 04:23:42;;;;;;;10.96;10.09;;;;;;;4.60;65.91;101766.50;458128;115;922870;-70
2022/03/01 04:24:47;;;;;;;10.30;9.50;;;;;;;4.58;65.79;101771.19;456052;115;922691;-68
2022/03/01 04:25:50;;;;;;;10.21;9.23;;;;;;;4.56;65.86;101768.66;458011;115;922595;-70
2022/03/01 04:26:54;;;;;;;10.79;9.74;;;;;;;4.57;65.91;101770.37;458540;115;923061;-70
2022/03/01 04:27:57;;;;;;;10.80;9.90;;;;;;;4.57;65.87;101761.41;457997;113;922678;-70
2022/03/01 04:29:00;;;;;;;10.44;9.61;;;;;;;4.57;65.84;101766.81;456299;115;922699;-72
2022/03/01 04:30:04;;;;;;;10.32;9.47;;;;;;;4.57;65.85;101764.97;457475;115;922536;-68
2022/03/01 04:31:07;;;;;;;11.01;10.06;;;;;;;4.56;65.80;101771.36;458377;113;922824;-69
2022/03/01 04:32:11;;;;;;;10.49;9.67;;;;;;;4.57;65.90;101764.97;455647;115;922573;-69
2022/03/01 04:33:14;;;;;;;9.95;9.16;;;;;;;4.56;65.77;101757.86;457732;115;922498;-70
2022/03/01 04:34:17;;;;;;;10.96;9.91;;;;;;;4.57;65.81;101764.11;457544;113;930617;-70
2022/03/01 04:35:21;;;;;;;9.73;8.86;;;;;;;4.58;65.85;101765.78;457283;115;923123;-70
2022/03/01 04:36:24;;;;;;;10.94;10.01;;;;;;;4.59;65.76;101767.50;456226;115;922573;-69
2022/03/01 04:37:27;;;;;;;10.88;9.92;;;;;;;4.58;65.59;101771.19;456315;115;923337;-71
2022/03/01 04:38:31;;;;;;;10.76;9.86;;;;;;;4.56;65.74;101760.56;457793;114;922714;-72
2022/03/01 04:39:34;;;;;;;10.97;10.14;;;;;;;4.55;65.77;101766.95;455992;115;924977;-69
2022/03/01 04:40:37;;;;;;;10.67;9.84;;;;;;;4.55;65.77;101764.25;459416;115;922548;-68
2022/03/01 04:41:40;;;;;;;11.77;10.69;;;;;;;4.55;65.85;101766.95;458443;113;922974;-69
2022/03/01 04:42:45;;;;;;;10.35;9.38;;;;;;;4.56;65.77;101770.50;458196;115;923165;-70
2022/03/01 04:43:48;;;;;;;10.71;9.81;;;;;;;4.57;65.82;101770.37;460526;115;922753;-69
2022/03/01 04:44:52;;;;;;;10.56;9.60;;;;;;;4.57;65.82;101762.27;455991;115;922781;-70
2022/03/01 04:45:56;;;;;;;9.82;9.04;;;;;;;4.58;65.77;101774.75;457358;113;922517;-71
2022/03/01 04:47:00;;;;;;;9.41;8.65;;;;;;;4.59;65.72;101775.59;456840;115;922616;-71
2022/03/01 04:48:05;;;;;;;10.89;9.98;;;;;;;4.59;65.63;101770.20;459522;115;930643;-71
2022/03/01 04:49:08;;;;;;;9.64;8.84;;;;;;;4.59;65.62;101772.90;457991;115;931138;-69
2022/03/01 04:50:12;;;;;;;9.71;8.91;;;;;;;4.58;65.59;101763.94;457555;115;923123;-70
2022/03/01 04:51:21;;;;;;;11.02;10.05;;;;;;;4.57;65.62;101775.77;456774;115;922418;-69
2022/03/01 04:52:20;;;;;;;9.96;9.16;;;;;;;4.58;65.66;101774.75;458376;113;930685;-68
2022/03/01 04:53:24;;;;;;;9.74;8.99;;;;;;;4.58;65.60;101774.75;457764;115;922530;-70